createdAt,value
2023-03-12T00:00:52.872Z,21.07
2023-03-12T00:06:09.826Z,21.07
2023-03-12T00:11:05.280Z,18.21
2023-03-12T00:16:12.376Z,12.86
2023-03-12T00:21:18.776Z,17.14
2023-03-12T00:26:25.464Z,18.57
2023-03-12T00:31:32.186Z,21.07
2023-03-12T00:36:38.870Z,21.07
2023-03-12T00:41:46.364Z,13.93
2023-03-12T00:46:53.118Z,20.71
2023-03-12T00:51:59.619Z,20.35
2023-03-12T00:57:07.534Z,22.50
2023-03-12T01:02:13.907Z,20.71
2023-03-12T01:07:20.718Z,20.71
2023-03-12T01:12:27.140Z,10.71
2023-03-12T01:17:34.927Z,27.50
2023-03-12T01:22:41.324Z,20.00
2023-03-12T01:27:48.209Z,21.07
2023-03-12T01:32:54.883Z,21.78
2023-03-12T01:38:02.130Z,23.21
2023-03-12T01:43:08.525Z,22.50
2023-03-12T01:48:30.940Z,31.78
2023-03-12T01:53:17.546Z,29.28
2023-03-12T01:58:24.364Z,29.64
2023-03-12T02:03:30.869Z,19.64
2023-03-12T02:08:37.704Z,27.85
2023-03-12T02:13:45.225Z,18.21
2023-03-12T02:18:51.706Z,20.71
2023-03-12T02:23:58.129Z,16.43
2023-03-12T02:29:05.880Z,17.14
2023-03-12T02:34:12.317Z,24.64
2023-03-12T02:39:19.128Z,22.50
2023-03-12T02:44:25.749Z,20.71
2023-03-12T02:49:32.465Z,20.35
2023-03-12T02:54:39.048Z,25.00
2023-03-12T02:59:46.951Z,20.35
2023-03-12T03:04:53.338Z,18.57
2023-03-12T03:10:00.277Z,28.57
2023-03-12T03:15:06.616Z,20.71
2023-03-12T03:20:17.571Z,29.28
2023-03-12T03:25:13.941Z,34.28
2023-03-12T03:30:20.130Z,26.07
2023-03-12T03:35:27.042Z,26.43
2023-03-12T03:40:33.447Z,22.14
2023-03-12T03:45:40.138Z,25.00
2023-03-12T03:50:46.555Z,36.78
2023-03-12T03:55:53.161Z,18.21
2023-03-12T04:00:59.778Z,30.35
2023-03-12T04:06:06.512Z,20.35
2023-03-12T04:11:12.930Z,22.50
2023-03-12T04:16:19.759Z,22.50
2023-03-12T04:21:26.046Z,22.85
2023-03-12T04:26:32.880Z,21.07
2023-03-12T04:31:39.286Z,22.14
2023-03-12T04:36:49.169Z,28.21
2023-03-12T04:41:56.334Z,22.50
2023-03-12T04:47:03.168Z,22.14
2023-03-12T04:52:09.616Z,29.64
2023-03-12T04:57:16.448Z,35.71
2023-03-12T05:02:22.560Z,21.78
2023-03-12T05:07:29.293Z,21.43
2023-03-12T05:12:35.795Z,23.21
2023-03-12T05:17:42.300Z,31.43
2023-03-12T05:22:48.956Z,22.85
2023-03-12T05:27:55.581Z,23.21
2023-03-12T05:33:02.116Z,21.07
2023-03-12T05:38:09.975Z,28.57
2023-03-12T05:43:16.778Z,21.78
2023-03-12T05:48:23.478Z,29.64
2023-03-12T05:53:30.758Z,29.28
2023-03-12T05:58:39.313Z,32.50
2023-03-12T06:03:46.385Z,35.35
2023-03-12T06:08:53.285Z,21.07
2023-03-12T06:13:59.361Z,30.71
2023-03-12T06:19:08.168Z,21.43
2023-03-12T06:24:14.480Z,31.43
2023-03-12T06:29:21.169Z,25.71
2023-03-12T06:34:27.690Z,32.85
2023-03-12T06:39:34.060Z,22.85
2023-03-12T06:44:41.091Z,33.21
2023-03-12T06:49:48.009Z,23.21
2023-03-12T06:54:56.112Z,26.78
2023-03-12T07:00:02.014Z,20.71
2023-03-12T07:05:09.059Z,30.35
2023-03-12T07:10:17.242Z,22.50
2023-03-12T07:15:26.941Z,22.14
2023-03-12T07:20:36.355Z,23.93
2023-03-12T07:25:42.901Z,20.71
2023-03-12T07:30:49.311Z,15.71
2023-03-12T07:35:57.060Z,22.50
2023-03-12T07:41:04.012Z,16.78
2023-03-12T07:46:10.381Z,26.78
2023-03-12T07:51:19.862Z,21.07
2023-03-12T07:56:27.184Z,21.78
2023-03-12T08:01:34.197Z,18.93
2023-03-12T08:06:40.538Z,21.07
2023-03-12T08:11:50.902Z,14.64
2023-03-12T08:16:56.313Z,21.07
2023-03-12T08:22:04.906Z,18.93
2023-03-12T08:27:11.011Z,17.50
2023-03-12T08:32:17.785Z,12.50
2023-03-12T08:37:24.757Z,19.28
2023-03-12T08:42:34.817Z,17.86
2023-03-12T08:47:40.879Z,20.35
2023-03-12T08:52:48.904Z,19.64
2023-03-12T08:57:55.170Z,21.07
2023-03-12T09:03:03.110Z,14.28
2023-03-12T09:08:09.630Z,16.07
2023-03-12T09:13:16.651Z,12.14
2023-03-12T09:18:25.015Z,17.86
2023-03-12T09:23:31.643Z,21.43
2023-03-12T09:28:38.236Z,8.57
2023-03-12T09:33:45.533Z,10.71
2023-03-12T09:38:51.199Z,14.28
2023-03-12T09:43:58.325Z,9.28
2023-03-12T09:49:05.547Z,18.21
2023-03-12T09:54:13.558Z,2.86
2023-03-12T09:59:20.095Z,1.43
2023-03-12T10:04:37.798Z,3.21
2023-03-12T10:09:30.861Z,4.72
2023-03-12T10:14:37.267Z,16.71
2023-03-12T10:19:45.604Z,13.21
2023-03-12T10:24:57.162Z,4.72
2023-03-12T10:29:55.769Z,9.08
2023-03-12T10:35:04.303Z,5.81
2023-03-12T10:40:12.834Z,12.04
2023-03-12T10:45:20.288Z,12.14
2023-03-12T10:50:26.574Z,1.62
2023-03-12T10:55:34.211Z,16.61
2023-03-12T11:00:40.891Z,4.96
2023-03-12T11:05:49.122Z,21.07
2023-03-12T11:10:56.027Z,0.00
2023-03-12T11:16:02.917Z,3.28
2023-03-12T11:21:10.776Z,3.57
2023-03-12T11:26:18.023Z,8.87
2023-03-12T11:31:26.687Z,0.64
2023-03-12T11:36:32.425Z,1.07
2023-03-12T11:41:41.144Z,1.07
2023-03-12T11:46:49.207Z,0.00
2023-03-12T11:51:56.487Z,0.00
2023-03-12T11:57:04.602Z,0.71
2023-03-12T12:02:12.929Z,0.00
2023-03-12T12:07:22.062Z,2.50
2023-03-12T12:12:27.633Z,9.64
2023-03-12T12:17:40.357Z,3.93
2023-03-12T12:22:35.875Z,2.50
2023-03-12T12:27:43.388Z,0.00
2023-03-12T12:32:50.549Z,9.64
2023-03-12T12:37:57.146Z,8.21
2023-03-12T12:43:04.086Z,7.86
2023-03-12T12:48:10.528Z,0.00
2023-03-12T12:53:16.833Z,7.86
2023-03-12T12:58:25.333Z,0.00
2023-03-12T13:03:32.785Z,0.71
2023-03-12T13:08:44.019Z,4.29
2023-03-12T13:13:40.564Z,4.64
2023-03-12T13:18:49.849Z,8.93
2023-03-12T13:23:56.315Z,0.00
2023-03-12T13:29:12.405Z,3.93
2023-03-12T13:34:08.922Z,2.50
2023-03-12T13:39:15.539Z,0.00
2023-03-12T13:44:22.056Z,0.00
2023-03-12T13:49:28.759Z,0.00
2023-03-12T13:54:35.300Z,1.79
2023-03-12T13:59:41.919Z,0.00
2023-03-12T14:04:48.546Z,2.14
2023-03-12T14:09:55.263Z,0.00
2023-03-12T14:15:01.574Z,3.93
2023-03-12T14:20:08.295Z,3.21
2023-03-12T14:25:14.477Z,1.43
2023-03-12T14:30:21.201Z,0.36
2023-03-12T14:35:27.686Z,2.50
2023-03-12T14:40:34.359Z,2.50
2023-03-12T14:45:40.890Z,3.93
2023-03-12T14:50:47.670Z,0.00
2023-03-12T14:55:53.821Z,0.36
2023-03-12T15:01:00.347Z,7.86
2023-03-12T15:06:07.768Z,0.00
2023-03-12T15:11:14.545Z,2.14
2023-03-12T15:16:22.032Z,2.86
2023-03-12T15:21:29.165Z,1.79
2023-03-12T15:26:42.216Z,0.71
2023-03-12T15:31:39.416Z,7.50
2023-03-12T15:36:51.634Z,0.00
2023-03-12T15:41:48.188Z,10.71
2023-03-12T15:46:54.707Z,5.71
2023-03-12T15:52:01.318Z,3.21
2023-03-12T15:57:07.968Z,0.00
2023-03-12T16:02:15.646Z,1.07
2023-03-12T16:07:23.838Z,0.00
2023-03-12T16:12:30.578Z,2.86
2023-03-12T16:17:37.144Z,0.36
2023-03-12T16:22:44.232Z,2.14
2023-03-12T16:27:50.605Z,0.00
2023-03-12T16:32:58.215Z,5.00
2023-03-12T16:38:03.376Z,0.36
2023-03-12T16:43:11.479Z,3.57
2023-03-12T16:48:17.775Z,13.57
2023-03-12T16:53:24.540Z,12.86
2023-03-12T16:58:30.823Z,7.50
2023-03-12T17:03:37.910Z,8.21
2023-03-12T17:08:43.973Z,0.00
2023-03-12T17:13:50.918Z,0.36
2023-03-12T17:18:58.177Z,4.29
2023-03-12T17:24:05.069Z,2.86
2023-03-12T17:29:11.557Z,16.44
2023-03-12T17:34:18.492Z,11.04
2023-03-12T17:39:24.945Z,2.28
2023-03-12T17:44:32.852Z,4.21
2023-03-12T17:49:39.368Z,9.53
2023-03-12T17:54:46.144Z,7.15
2023-03-12T17:59:52.695Z,8.35
2023-03-12T18:05:00.551Z,16.35
2023-03-12T18:10:06.378Z,3.70
2023-03-12T18:15:13.473Z,12.04
2023-03-12T18:20:32.145Z,7.27
2023-03-12T18:25:26.062Z,20.34
2023-03-12T18:30:33.360Z,12.50
2023-03-12T18:35:40.466Z,3.63
2023-03-12T18:40:46.791Z,18.53
2023-03-12T18:45:53.786Z,21.43
2023-03-12T18:51:00.322Z,15.98
2023-03-12T18:56:07.234Z,21.07
2023-03-12T19:01:13.791Z,13.44
2023-03-12T19:06:20.552Z,13.93
2023-03-12T19:11:27.034Z,18.93
2023-03-12T19:16:34.601Z,21.07
2023-03-12T19:21:41.970Z,11.43
2023-03-12T19:26:49.883Z,12.86
2023-03-12T19:31:56.359Z,16.78
2023-03-12T19:37:03.144Z,21.78
2023-03-12T19:42:12.863Z,11.07
2023-03-12T19:47:19.759Z,15.36
2023-03-12T19:52:26.058Z,10.00
2023-03-12T19:57:33.309Z,16.43
2023-03-12T20:02:40.812Z,19.64
2023-03-12T20:07:47.315Z,8.57
2023-03-12T20:12:53.842Z,14.64
2023-03-12T20:18:00.494Z,12.50
2023-03-12T20:23:07.121Z,13.93
2023-03-12T20:28:14.908Z,8.57
2023-03-12T20:33:21.315Z,15.00
2023-03-12T20:38:28.267Z,17.86
2023-03-12T20:43:36.046Z,16.07
2023-03-12T20:48:42.737Z,21.07
2023-03-12T20:53:49.363Z,25.35
2023-03-12T20:58:57.628Z,10.00
2023-03-12T21:04:05.267Z,21.07
2023-03-12T21:09:12.230Z,20.71
2023-03-12T21:14:20.976Z,21.07
2023-03-12T21:19:27.892Z,26.07
2023-03-12T21:24:35.248Z,19.64
2023-03-12T21:29:42.423Z,22.85
2023-03-12T21:34:48.698Z,21.07
2023-03-12T21:39:55.992Z,21.78
2023-03-12T21:45:02.681Z,21.07
2023-03-12T21:50:09.251Z,20.71
2023-03-12T21:55:15.825Z,22.14
2023-03-12T22:00:22.682Z,20.71
2023-03-12T22:05:29.132Z,21.78
2023-03-12T22:10:35.982Z,21.07
2023-03-12T22:15:42.444Z,17.50
2023-03-12T22:20:49.220Z,23.57
2023-03-12T22:25:57.831Z,20.35
2023-03-12T22:31:04.731Z,21.78
2023-03-12T22:36:12.264Z,21.07
2023-03-12T22:41:18.978Z,23.93
2023-03-12T22:46:25.431Z,21.07
2023-03-12T22:51:32.346Z,21.43
2023-03-12T22:56:39.775Z,22.14
2023-03-12T23:01:46.660Z,25.00
2023-03-12T23:06:59.104Z,28.21
2023-03-12T23:12:00.921Z,21.43
2023-03-12T23:17:07.268Z,30.35
2023-03-12T23:22:14.028Z,23.57
2023-03-12T23:27:20.447Z,27.14
2023-03-12T23:32:27.580Z,33.57
2023-03-12T23:37:33.969Z,18.93
2023-03-12T23:42:41.131Z,24.64
2023-03-12T23:47:47.465Z,20.71
2023-03-12T23:52:54.460Z,27.50
2023-03-12T23:58:00.862Z,24.64
